sensor_id;sensor_type;location;lat;lon;timestamp;P1;durP1;ratioP1;P2;durP2;ratioP2
37065;SDS011;22981;43.080;25.550;2022-08-16T00:02:21;12.85;;;11.65;;
37065;SDS011;22981;43.080;25.550;2022-08-16T00:04:48;12.95;;;11.70;;
37065;SDS011;22981;43.080;25.550;2022-08-16T00:07:16;12.35;;;11.25;;
37065;SDS011;22981;43.080;25.550;2022-08-16T00:09:44;12.35;;;11.20;;
37065;SDS011;22981;43.080;25.550;2022-08-16T00:12:11;12.55;;;11.18;;
37065;SDS011;22981;43.080;25.550;2022-08-16T00:14:39;14.10;;;11.25;;
37065;SDS011;22981;43.080;25.550;2022-08-16T00:17:06;11.05;;;10.00;;
37065;SDS011;22981;43.080;25.550;2022-08-16T00:19:34;14.15;;;11.22;;
37065;SDS011;22981;43.080;25.550;2022-08-16T00:22:02;11.83;;;10.68;;
37065;SDS011;22981;43.080;25.550;2022-08-16T00:24:29;12.58;;;11.30;;
37065;SDS011;22981;43.080;25.550;2022-08-16T00:27:02;12.13;;;10.98;;
37065;SDS011;22981;43.080;25.550;2022-08-16T00:29:30;16.30;;;11.43;;
37065;SDS011;22981;43.080;25.550;2022-08-16T00:31:58;12.60;;;11.30;;
37065;SDS011;22981;43.080;25.550;2022-08-16T00:34:28;11.45;;;10.35;;
37065;SDS011;22981;43.080;25.550;2022-08-16T00:36:56;15.88;;;12.00;;
37065;SDS011;22981;43.080;25.550;2022-08-16T00:39:23;12.45;;;11.15;;
37065;SDS011;22981;43.080;25.550;2022-08-16T00:41:51;11.95;;;10.78;;
37065;SDS011;22981;43.080;25.550;2022-08-16T00:44:19;12.37;;;11.00;;
37065;SDS011;22981;43.080;25.550;2022-08-16T00:46:59;12.00;;;10.78;;
37065;SDS011;22981;43.080;25.550;2022-08-16T00:49:25;11.48;;;10.43;;
37065;SDS011;22981;43.080;25.550;2022-08-16T00:51:53;12.25;;;10.40;;
37065;SDS011;22981;43.080;25.550;2022-08-16T00:54:21;12.40;;;11.08;;
37065;SDS011;22981;43.080;25.550;2022-08-16T00:56:53;14.10;;;11.50;;
37065;SDS011;22981;43.080;25.550;2022-08-16T00:59:24;12.55;;;11.25;;
37065;SDS011;22981;43.080;25.550;2022-08-16T01:01:53;12.03;;;10.80;;
37065;SDS011;22981;43.080;25.550;2022-08-16T01:04:22;12.28;;;10.75;;
37065;SDS011;22981;43.080;25.550;2022-08-16T01:06:51;12.85;;;10.23;;
37065;SDS011;22981;43.080;25.550;2022-08-16T01:09:20;11.73;;;10.65;;
37065;SDS011;22981;43.080;25.550;2022-08-16T01:11:48;12.10;;;10.90;;
37065;SDS011;22981;43.080;25.550;2022-08-16T01:16:47;12.85;;;11.55;;
37065;SDS011;22981;43.080;25.550;2022-08-16T01:27:00;12.40;;;11.15;;
37065;SDS011;22981;43.080;25.550;2022-08-16T01:29:43;12.28;;;10.90;;
37065;SDS011;22981;43.080;25.550;2022-08-16T01:32:23;13.83;;;11.22;;
37065;SDS011;22981;43.080;25.550;2022-08-16T01:34:51;11.73;;;10.63;;
37065;SDS011;22981;43.080;25.550;2022-08-16T01:37:19;13.65;;;11.33;;
37065;SDS011;22981;43.080;25.550;2022-08-16T01:39:46;13.10;;;11.73;;
37065;SDS011;22981;43.080;25.550;2022-08-16T01:42:14;13.28;;;11.88;;
37065;SDS011;22981;43.080;25.550;2022-08-16T01:44:41;14.23;;;11.57;;
37065;SDS011;22981;43.080;25.550;2022-08-16T01:47:09;12.07;;;10.98;;
37065;SDS011;22981;43.080;25.550;2022-08-16T01:49:38;11.85;;;10.82;;
37065;SDS011;22981;43.080;25.550;2022-08-16T01:52:09;11.50;;;10.43;;
37065;SDS011;22981;43.080;25.550;2022-08-16T01:54:37;14.10;;;11.57;;
37065;SDS011;22981;43.080;25.550;2022-08-16T01:57:06;13.10;;;11.73;;
37065;SDS011;22981;43.080;25.550;2022-08-16T01:59:35;11.65;;;10.55;;
37065;SDS011;22981;43.080;25.550;2022-08-16T02:02:04;13.00;;;11.63;;
37065;SDS011;22981;43.080;25.550;2022-08-16T02:04:32;14.23;;;12.03;;
37065;SDS011;22981;43.080;25.550;2022-08-16T02:07:01;13.22;;;11.48;;
37065;SDS011;22981;43.080;25.550;2022-08-16T02:09:30;12.85;;;11.55;;
37065;SDS011;22981;43.080;25.550;2022-08-16T02:11:58;13.45;;;12.23;;
37065;SDS011;22981;43.080;25.550;2022-08-16T02:14:27;13.60;;;12.35;;
37065;SDS011;22981;43.080;25.550;2022-08-16T02:16:56;15.60;;;12.93;;
37065;SDS011;22981;43.080;25.550;2022-08-16T02:19:26;13.00;;;11.83;;
37065;SDS011;22981;43.080;25.550;2022-08-16T02:21:57;13.83;;;11.75;;
37065;SDS011;22981;43.080;25.550;2022-08-16T02:24:26;12.23;;;11.12;;
37065;SDS011;22981;43.080;25.550;2022-08-16T02:26:54;13.28;;;11.88;;
37065;SDS011;22981;43.080;25.550;2022-08-16T02:29:22;16.10;;;11.93;;
37065;SDS011;22981;43.080;25.550;2022-08-16T02:31:50;13.25;;;11.53;;
37065;SDS011;22981;43.080;25.550;2022-08-16T02:34:18;12.70;;;10.68;;
37065;SDS011;22981;43.080;25.550;2022-08-16T02:36:47;11.35;;;10.25;;
37065;SDS011;22981;43.080;25.550;2022-08-16T02:39:15;11.88;;;10.78;;
37065;SDS011;22981;43.080;25.550;2022-08-16T02:41:44;11.75;;;10.65;;
37065;SDS011;22981;43.080;25.550;2022-08-16T02:44:14;12.35;;;11.15;;
37065;SDS011;22981;43.080;25.550;2022-08-16T02:46:42;13.10;;;11.70;;
37065;SDS011;22981;43.080;25.550;2022-08-16T02:49:11;12.18;;;10.98;;
37065;SDS011;22981;43.080;25.550;2022-08-16T02:51:40;11.88;;;10.75;;
37065;SDS011;22981;43.080;25.550;2022-08-16T02:54:09;12.20;;;10.38;;
37065;SDS011;22981;43.080;25.550;2022-08-16T02:56:40;11.93;;;10.20;;
37065;SDS011;22981;43.080;25.550;2022-08-16T02:59:08;12.15;;;10.95;;
37065;SDS011;22981;43.080;25.550;2022-08-16T03:01:36;14.47;;;10.85;;
37065;SDS011;22981;43.080;25.550;2022-08-16T03:04:04;11.15;;;9.70;;
37065;SDS011;22981;43.080;25.550;2022-08-16T03:06:32;12.40;;;11.30;;
37065;SDS011;22981;43.080;25.550;2022-08-16T03:09:00;12.28;;;10.63;;
37065;SDS011;22981;43.080;25.550;2022-08-16T03:11:29;11.88;;;10.68;;
37065;SDS011;22981;43.080;25.550;2022-08-16T03:13:57;12.05;;;10.95;;
37065;SDS011;22981;43.080;25.550;2022-08-16T03:16:25;12.65;;;11.35;;
37065;SDS011;22981;43.080;25.550;2022-08-16T03:18:53;18.80;;;11.70;;
37065;SDS011;22981;43.080;25.550;2022-08-16T03:21:20;14.73;;;12.13;;
37065;SDS011;22981;43.080;25.550;2022-08-16T03:23:48;12.60;;;11.40;;
37065;SDS011;22981;43.080;25.550;2022-08-16T03:26:16;12.70;;;11.33;;
37065;SDS011;22981;43.080;25.550;2022-08-16T03:28:43;13.43;;;12.03;;
37065;SDS011;22981;43.080;25.550;2022-08-16T03:31:11;12.80;;;11.50;;
37065;SDS011;22981;43.080;25.550;2022-08-16T03:33:39;11.88;;;10.78;;
37065;SDS011;22981;43.080;25.550;2022-08-16T03:36:07;12.95;;;11.73;;
37065;SDS011;22981;43.080;25.550;2022-08-16T03:38:35;15.38;;;12.25;;
37065;SDS011;22981;43.080;25.550;2022-08-16T03:41:03;14.68;;;11.97;;
37065;SDS011;22981;43.080;25.550;2022-08-16T03:43:32;12.25;;;11.00;;
37065;SDS011;22981;43.080;25.550;2022-08-16T03:46:00;13.58;;;11.57;;
37065;SDS011;22981;43.080;25.550;2022-08-16T03:48:30;13.40;;;12.00;;
37065;SDS011;22981;43.080;25.550;2022-08-16T03:51:00;13.95;;;10.63;;
37065;SDS011;22981;43.080;25.550;2022-08-16T03:53:29;13.05;;;11.30;;
37065;SDS011;22981;43.080;25.550;2022-08-16T03:55:56;12.98;;;11.68;;
37065;SDS011;22981;43.080;25.550;2022-08-16T03:58:24;16.70;;;11.85;;
37065;SDS011;22981;43.080;25.550;2022-08-16T04:00:51;15.03;;;11.57;;
37065;SDS011;22981;43.080;25.550;2022-08-16T04:03:20;14.07;;;12.60;;
37065;SDS011;22981;43.080;25.550;2022-08-16T04:05:49;13.78;;;12.18;;
37065;SDS011;22981;43.080;25.550;2022-08-16T04:08:17;13.05;;;10.90;;
37065;SDS011;22981;43.080;25.550;2022-08-16T04:10:46;12.15;;;11.05;;
37065;SDS011;22981;43.080;25.550;2022-08-16T04:13:15;12.58;;;11.28;;
37065;SDS011;22981;43.080;25.550;2022-08-16T04:15:42;14.95;;;11.20;;
37065;SDS011;22981;43.080;25.550;2022-08-16T04:18:10;12.47;;;10.60;;
37065;SDS011;22981;43.080;25.550;2022-08-16T04:20:37;12.68;;;11.33;;
37065;SDS011;22981;43.080;25.550;2022-08-16T04:23:05;13.45;;;12.15;;
37065;SDS011;22981;43.080;25.550;2022-08-16T04:25:34;14.15;;;11.83;;
37065;SDS011;22981;43.080;25.550;2022-08-16T04:28:02;13.50;;;11.20;;
37065;SDS011;22981;43.080;25.550;2022-08-16T04:30:30;11.57;;;10.55;;
37065;SDS011;22981;43.080;25.550;2022-08-16T04:32:58;13.08;;;11.43;;
37065;SDS011;22981;43.080;25.550;2022-08-16T04:35:25;12.23;;;10.98;;
37065;SDS011;22981;43.080;25.550;2022-08-16T04:37:53;11.33;;;10.10;;
37065;SDS011;22981;43.080;25.550;2022-08-16T04:40:21;12.98;;;11.35;;
37065;SDS011;22981;43.080;25.550;2022-08-16T04:42:52;13.03;;;11.73;;
37065;SDS011;22981;43.080;25.550;2022-08-16T04:45:20;14.63;;;11.25;;
37065;SDS011;22981;43.080;25.550;2022-08-16T04:47:49;13.13;;;11.90;;
37065;SDS011;22981;43.080;25.550;2022-08-16T04:50:23;11.60;;;10.40;;
37065;SDS011;22981;43.080;25.550;2022-08-16T04:52:52;13.95;;;11.48;;
37065;SDS011;22981;43.080;25.550;2022-08-16T04:55:22;15.32;;;11.90;;
37065;SDS011;22981;43.080;25.550;2022-08-16T04:57:52;12.90;;;11.63;;
37065;SDS011;22981;43.080;25.550;2022-08-16T05:00:24;13.50;;;12.20;;
37065;SDS011;22981;43.080;25.550;2022-08-16T05:02:55;15.58;;;12.78;;
37065;SDS011;22981;43.080;25.550;2022-08-16T05:05:23;15.98;;;13.65;;
37065;SDS011;22981;43.080;25.550;2022-08-16T05:07:50;18.62;;;12.95;;
37065;SDS011;22981;43.080;25.550;2022-08-16T05:10:18;13.72;;;12.43;;
37065;SDS011;22981;43.080;25.550;2022-08-16T05:12:46;15.10;;;12.45;;
37065;SDS011;22981;43.080;25.550;2022-08-16T05:15:13;14.13;;;12.93;;
37065;SDS011;22981;43.080;25.550;2022-08-16T05:17:41;14.43;;;12.95;;
37065;SDS011;22981;43.080;25.550;2022-08-16T05:20:09;14.85;;;13.25;;
37065;SDS011;22981;43.080;25.550;2022-08-16T05:22:37;14.93;;;13.40;;
37065;SDS011;22981;43.080;25.550;2022-08-16T05:25:06;16.55;;;13.20;;
37065;SDS011;22981;43.080;25.550;2022-08-16T05:27:34;15.48;;;13.80;;
37065;SDS011;22981;43.080;25.550;2022-08-16T05:30:03;14.87;;;13.32;;
37065;SDS011;22981;43.080;25.550;2022-08-16T05:32:32;15.55;;;13.95;;
37065;SDS011;22981;43.080;25.550;2022-08-16T05:35:01;15.75;;;14.13;;
37065;SDS011;22981;43.080;25.550;2022-08-16T05:37:35;16.25;;;13.68;;
37065;SDS011;22981;43.080;25.550;2022-08-16T05:40:05;16.62;;;13.55;;
37065;SDS011;22981;43.080;25.550;2022-08-16T05:42:34;14.43;;;12.93;;
37065;SDS011;22981;43.080;25.550;2022-08-16T05:45:03;14.85;;;12.90;;
37065;SDS011;22981;43.080;25.550;2022-08-16T05:47:31;14.47;;;12.98;;
37065;SDS011;22981;43.080;25.550;2022-08-16T05:49:59;14.15;;;12.68;;
37065;SDS011;22981;43.080;25.550;2022-08-16T05:52:27;15.32;;;13.40;;
37065;SDS011;22981;43.080;25.550;2022-08-16T05:54:55;17.05;;;13.13;;
37065;SDS011;22981;43.080;25.550;2022-08-16T05:57:22;18.00;;;12.73;;
37065;SDS011;22981;43.080;25.550;2022-08-16T05:59:50;14.05;;;12.15;;
37065;SDS011;22981;43.080;25.550;2022-08-16T06:02:17;13.95;;;11.73;;
37065;SDS011;22981;43.080;25.550;2022-08-16T06:04:46;13.35;;;12.05;;
37065;SDS011;22981;43.080;25.550;2022-08-16T06:07:13;16.97;;;12.07;;
37065;SDS011;22981;43.080;25.550;2022-08-16T06:09:41;14.45;;;12.00;;
37065;SDS011;22981;43.080;25.550;2022-08-16T06:12:12;13.70;;;12.40;;
37065;SDS011;22981;43.080;25.550;2022-08-16T06:14:41;13.53;;;12.33;;
37065;SDS011;22981;43.080;25.550;2022-08-16T06:17:08;14.33;;;11.68;;
37065;SDS011;22981;43.080;25.550;2022-08-16T06:19:36;12.28;;;10.93;;
37065;SDS011;22981;43.080;25.550;2022-08-16T06:22:04;13.88;;;11.38;;
37065;SDS011;22981;43.080;25.550;2022-08-16T06:24:31;12.43;;;11.18;;
37065;SDS011;22981;43.080;25.550;2022-08-16T06:26:59;13.48;;;10.53;;
37065;SDS011;22981;43.080;25.550;2022-08-16T06:29:26;11.53;;;9.88;;
37065;SDS011;22981;43.080;25.550;2022-08-16T06:31:54;12.03;;;10.55;;
37065;SDS011;22981;43.080;25.550;2022-08-16T06:34:21;14.55;;;10.72;;
37065;SDS011;22981;43.080;25.550;2022-08-16T06:36:49;14.83;;;11.20;;
37065;SDS011;22981;43.080;25.550;2022-08-16T06:39:17;11.55;;;10.45;;
37065;SDS011;22981;43.080;25.550;2022-08-16T06:41:44;11.73;;;10.18;;
37065;SDS011;22981;43.080;25.550;2022-08-16T06:44:12;10.38;;;9.38;;
37065;SDS011;22981;43.080;25.550;2022-08-16T06:46:39;11.12;;;9.63;;
37065;SDS011;22981;43.080;25.550;2022-08-16T06:49:08;11.93;;;9.73;;
37065;SDS011;22981;43.080;25.550;2022-08-16T06:51:38;9.73;;;8.90;;
37065;SDS011;22981;43.080;25.550;2022-08-16T06:54:07;10.32;;;9.33;;
37065;SDS011;22981;43.080;25.550;2022-08-16T06:56:35;9.55;;;8.65;;
37065;SDS011;22981;43.080;25.550;2022-08-16T06:59:03;10.30;;;9.23;;
37065;SDS011;22981;43.080;25.550;2022-08-16T07:01:31;9.90;;;8.90;;
37065;SDS011;22981;43.080;25.550;2022-08-16T07:03:59;9.73;;;8.83;;
37065;SDS011;22981;43.080;25.550;2022-08-16T07:06:27;9.58;;;8.60;;
37065;SDS011;22981;43.080;25.550;2022-08-16T07:08:55;9.18;;;8.23;;
37065;SDS011;22981;43.080;25.550;2022-08-16T07:11:23;10.10;;;8.70;;
37065;SDS011;22981;43.080;25.550;2022-08-16T07:13:51;9.20;;;8.40;;
37065;SDS011;22981;43.080;25.550;2022-08-16T07:16:19;8.83;;;7.92;;
37065;SDS011;22981;43.080;25.550;2022-08-16T07:18:47;12.70;;;8.83;;
37065;SDS011;22981;43.080;25.550;2022-08-16T07:21:15;8.55;;;7.70;;
37065;SDS011;22981;43.080;25.550;2022-08-16T07:23:42;9.10;;;8.18;;
37065;SDS011;22981;43.080;25.550;2022-08-16T07:26:14;8.88;;;8.03;;
37065;SDS011;22981;43.080;25.550;2022-08-16T07:28:41;8.93;;;7.65;;
37065;SDS011;22981;43.080;25.550;2022-08-16T07:31:08;8.65;;;7.30;;
37065;SDS011;22981;43.080;25.550;2022-08-16T07:33:36;8.65;;;7.75;;
37065;SDS011;22981;43.080;25.550;2022-08-16T07:36:05;7.97;;;7.28;;
37065;SDS011;22981;43.080;25.550;2022-08-16T07:38:34;8.35;;;7.37;;
37065;SDS011;22981;43.080;25.550;2022-08-16T07:41:02;8.63;;;7.72;;
37065;SDS011;22981;43.080;25.550;2022-08-16T07:43:30;8.48;;;7.58;;
37065;SDS011;22981;43.080;25.550;2022-08-16T07:45:59;8.48;;;7.33;;
37065;SDS011;22981;43.080;25.550;2022-08-16T07:48:27;8.05;;;7.25;;
37065;SDS011;22981;43.080;25.550;2022-08-16T07:50:55;7.95;;;7.25;;
37065;SDS011;22981;43.080;25.550;2022-08-16T07:53:22;9.40;;;7.47;;
37065;SDS011;22981;43.080;25.550;2022-08-16T07:55:50;8.48;;;7.58;;
37065;SDS011;22981;43.080;25.550;2022-08-16T07:58:18;8.13;;;7.33;;
37065;SDS011;22981;43.080;25.550;2022-08-16T08:00:45;7.83;;;7.12;;
37065;SDS011;22981;43.080;25.550;2022-08-16T08:03:13;8.20;;;7.50;;
37065;SDS011;22981;43.080;25.550;2022-08-16T08:05:41;8.03;;;7.25;;
37065;SDS011;22981;43.080;25.550;2022-08-16T08:08:08;7.80;;;7.10;;
37065;SDS011;22981;43.080;25.550;2022-08-16T08:10:36;8.23;;;7.42;;
37065;SDS011;22981;43.080;25.550;2022-08-16T08:13:03;8.08;;;7.28;;
37065;SDS011;22981;43.080;25.550;2022-08-16T08:15:31;8.30;;;6.90;;
37065;SDS011;22981;43.080;25.550;2022-08-16T08:17:59;8.13;;;7.42;;
37065;SDS011;22981;43.080;25.550;2022-08-16T08:20:27;8.08;;;7.33;;
37065;SDS011;22981;43.080;25.550;2022-08-16T08:22:55;8.95;;;7.22;;
37065;SDS011;22981;43.080;25.550;2022-08-16T08:25:24;8.78;;;7.87;;
37065;SDS011;22981;43.080;25.550;2022-08-16T08:27:52;8.65;;;7.72;;
37065;SDS011;22981;43.080;25.550;2022-08-16T08:30:19;7.65;;;6.95;;
37065;SDS011;22981;43.080;25.550;2022-08-16T08:32:47;7.58;;;6.67;;
37065;SDS011;22981;43.080;25.550;2022-08-16T08:35:15;8.55;;;6.80;;
37065;SDS011;22981;43.080;25.550;2022-08-16T08:37:43;9.50;;;7.30;;
37065;SDS011;22981;43.080;25.550;2022-08-16T08:40:10;8.38;;;6.95;;
37065;SDS011;22981;43.080;25.550;2022-08-16T08:42:38;9.58;;;7.70;;
37065;SDS011;22981;43.080;25.550;2022-08-16T08:45:08;7.90;;;7.10;;
37065;SDS011;22981;43.080;25.550;2022-08-16T08:47:37;8.03;;;6.90;;
37065;SDS011;22981;43.080;25.550;2022-08-16T08:50:07;7.83;;;7.03;;
37065;SDS011;22981;43.080;25.550;2022-08-16T08:52:35;7.33;;;6.65;;
37065;SDS011;22981;43.080;25.550;2022-08-16T08:55:05;8.20;;;7.50;;
37065;SDS011;22981;43.080;25.550;2022-08-16T08:57:34;7.87;;;7.10;;
37065;SDS011;22981;43.080;25.550;2022-08-16T09:00:03;7.92;;;7.22;;
37065;SDS011;22981;43.080;25.550;2022-08-16T09:02:32;8.05;;;7.25;;
37065;SDS011;22981;43.080;25.550;2022-08-16T09:05:00;8.65;;;7.08;;
37065;SDS011;22981;43.080;25.550;2022-08-16T09:07:27;10.40;;;7.47;;
37065;SDS011;22981;43.080;25.550;2022-08-16T09:09:55;7.67;;;6.78;;
37065;SDS011;22981;43.080;25.550;2022-08-16T09:12:22;9.55;;;7.42;;
37065;SDS011;22981;43.080;25.550;2022-08-16T09:14:50;7.67;;;6.97;;
37065;SDS011;22981;43.080;25.550;2022-08-16T09:17:18;7.08;;;6.42;;
37065;SDS011;22981;43.080;25.550;2022-08-16T09:19:45;8.18;;;6.80;;
37065;SDS011;22981;43.080;25.550;2022-08-16T09:22:13;7.45;;;6.47;;
37065;SDS011;22981;43.080;25.550;2022-08-16T09:24:43;7.65;;;6.95;;
37065;SDS011;22981;43.080;25.550;2022-08-16T09:27:11;7.78;;;7.08;;
37065;SDS011;22981;43.080;25.550;2022-08-16T09:29:39;9.28;;;7.12;;
37065;SDS011;22981;43.080;25.550;2022-08-16T09:32:07;9.40;;;6.90;;
37065;SDS011;22981;43.080;25.550;2022-08-16T09:34:35;7.70;;;6.92;;
37065;SDS011;22981;43.080;25.550;2022-08-16T09:37:03;7.72;;;7.00;;
37065;SDS011;22981;43.080;25.550;2022-08-16T09:39:30;7.15;;;6.55;;
37065;SDS011;22981;43.080;25.550;2022-08-16T09:41:58;7.53;;;6.83;;
37065;SDS011;22981;43.080;25.550;2022-08-16T09:44:27;7.50;;;6.78;;
37065;SDS011;22981;43.080;25.550;2022-08-16T09:46:55;7.47;;;6.78;;
37065;SDS011;22981;43.080;25.550;2022-08-16T09:49:23;33.40;;;8.48;;
37065;SDS011;22981;43.080;25.550;2022-08-16T09:51:51;7.17;;;6.47;;
37065;SDS011;22981;43.080;25.550;2022-08-16T09:54:23;10.15;;;6.92;;
37065;SDS011;22981;43.080;25.550;2022-08-16T09:56:52;7.20;;;6.50;;
37065;SDS011;22981;43.080;25.550;2022-08-16T09:59:21;7.45;;;6.78;;
37065;SDS011;22981;43.080;25.550;2022-08-16T10:01:50;7.47;;;6.78;;
37065;SDS011;22981;43.080;25.550;2022-08-16T10:04:18;7.10;;;6.50;;
37065;SDS011;22981;43.080;25.550;2022-08-16T10:06:47;6.80;;;6.17;;
37065;SDS011;22981;43.080;25.550;2022-08-16T10:09:14;7.62;;;6.97;;
37065;SDS011;22981;43.080;25.550;2022-08-16T10:11:42;7.45;;;6.75;;
37065;SDS011;22981;43.080;25.550;2022-08-16T10:14:28;7.00;;;6.40;;
37065;SDS011;22981;43.080;25.550;2022-08-16T10:17:02;7.65;;;6.95;;
37065;SDS011;22981;43.080;25.550;2022-08-16T10:19:31;9.55;;;6.72;;
37065;SDS011;22981;43.080;25.550;2022-08-16T10:21:58;7.22;;;6.58;;
37065;SDS011;22981;43.080;25.550;2022-08-16T10:24:26;8.80;;;6.85;;
37065;SDS011;22981;43.080;25.550;2022-08-16T10:26:54;6.97;;;6.37;;
37065;SDS011;22981;43.080;25.550;2022-08-16T10:29:22;9.35;;;7.22;;
37065;SDS011;22981;43.080;25.550;2022-08-16T10:31:50;7.45;;;6.53;;
37065;SDS011;22981;43.080;25.550;2022-08-16T10:34:17;7.70;;;6.83;;
37065;SDS011;22981;43.080;25.550;2022-08-16T10:36:45;10.65;;;7.05;;
37065;SDS011;22981;43.080;25.550;2022-08-16T10:39:13;7.22;;;6.60;;
37065;SDS011;22981;43.080;25.550;2022-08-16T10:41:40;7.58;;;6.87;;
37065;SDS011;22981;43.080;25.550;2022-08-16T10:44:08;7.22;;;6.58;;
37065;SDS011;22981;43.080;25.550;2022-08-16T10:46:35;7.00;;;6.30;;
37065;SDS011;22981;43.080;25.550;2022-08-16T10:49:03;6.80;;;5.97;;
37065;SDS011;22981;43.080;25.550;2022-08-16T10:51:31;6.58;;;5.97;;
37065;SDS011;22981;43.080;25.550;2022-08-16T10:53:58;6.62;;;5.62;;
37065;SDS011;22981;43.080;25.550;2022-08-16T10:56:27;6.70;;;6.12;;
37065;SDS011;22981;43.080;25.550;2022-08-16T10:58:55;7.67;;;6.87;;
37065;SDS011;22981;43.080;25.550;2022-08-16T11:01:24;6.65;;;6.12;;
37065;SDS011;22981;43.080;25.550;2022-08-16T11:03:52;7.90;;;6.53;;
37065;SDS011;22981;43.080;25.550;2022-08-16T11:06:21;7.03;;;6.33;;
37065;SDS011;22981;43.080;25.550;2022-08-16T11:08:49;7.17;;;6.03;;
37065;SDS011;22981;43.080;25.550;2022-08-16T11:11:16;6.35;;;5.80;;
37065;SDS011;22981;43.080;25.550;2022-08-16T11:13:44;6.40;;;5.80;;
37065;SDS011;22981;43.080;25.550;2022-08-16T11:16:13;6.40;;;5.80;;
37065;SDS011;22981;43.080;25.550;2022-08-16T11:18:40;6.25;;;5.75;;
37065;SDS011;22981;43.080;25.550;2022-08-16T11:21:09;6.65;;;6.10;;
37065;SDS011;22981;43.080;25.550;2022-08-16T11:23:37;6.75;;;6.08;;
37065;SDS011;22981;43.080;25.550;2022-08-16T11:26:05;6.40;;;5.80;;
37065;SDS011;22981;43.080;25.550;2022-08-16T11:28:34;6.12;;;5.53;;
37065;SDS011;22981;43.080;25.550;2022-08-16T11:31:02;6.08;;;5.53;;
37065;SDS011;22981;43.080;25.550;2022-08-16T11:33:29;8.28;;;6.17;;
37065;SDS011;22981;43.080;25.550;2022-08-16T11:35:57;6.25;;;5.25;;
37065;SDS011;22981;43.080;25.550;2022-08-16T11:38:25;5.67;;;5.10;;
37065;SDS011;22981;43.080;25.550;2022-08-16T11:40:53;5.45;;;4.90;;
37065;SDS011;22981;43.080;25.550;2022-08-16T11:43:23;6.70;;;5.42;;
37065;SDS011;22981;43.080;25.550;2022-08-16T11:45:53;5.62;;;5.12;;
37065;SDS011;22981;43.080;25.550;2022-08-16T11:48:23;5.72;;;5.15;;
37065;SDS011;22981;43.080;25.550;2022-08-16T11:50:53;6.08;;;5.47;;
37065;SDS011;22981;43.080;25.550;2022-08-16T11:53:21;5.85;;;5.30;;
37065;SDS011;22981;43.080;25.550;2022-08-16T11:55:50;6.72;;;6.12;;
37065;SDS011;22981;43.080;25.550;2022-08-16T11:58:18;6.47;;;5.78;;
37065;SDS011;22981;43.080;25.550;2022-08-16T12:00:47;6.33;;;5.40;;
37065;SDS011;22981;43.080;25.550;2022-08-16T12:03:14;6.83;;;5.53;;
37065;SDS011;22981;43.080;25.550;2022-08-16T12:05:43;7.83;;;5.95;;
37065;SDS011;22981;43.080;25.550;2022-08-16T12:08:12;6.08;;;5.55;;
37065;SDS011;22981;43.080;25.550;2022-08-16T12:10:41;6.45;;;5.67;;
37065;SDS011;22981;43.080;25.550;2022-08-16T12:13:11;6.05;;;5.45;;
37065;SDS011;22981;43.080;25.550;2022-08-16T12:15:40;6.65;;;5.35;;
37065;SDS011;22981;43.080;25.550;2022-08-16T12:18:07;5.65;;;5.03;;
37065;SDS011;22981;43.080;25.550;2022-08-16T12:20:38;6.28;;;5.20;;
37065;SDS011;22981;43.080;25.550;2022-08-16T12:23:06;5.70;;;5.10;;
37065;SDS011;22981;43.080;25.550;2022-08-16T12:25:34;6.15;;;5.40;;
37065;SDS011;22981;43.080;25.550;2022-08-16T12:28:03;6.25;;;5.25;;
37065;SDS011;22981;43.080;25.550;2022-08-16T12:30:34;6.92;;;4.97;;
37065;SDS011;22981;43.080;25.550;2022-08-16T12:33:04;5.53;;;5.03;;
37065;SDS011;22981;43.080;25.550;2022-08-16T12:35:33;5.60;;;5.00;;
37065;SDS011;22981;43.080;25.550;2022-08-16T12:38:02;5.70;;;5.20;;
37065;SDS011;22981;43.080;25.550;2022-08-16T12:40:34;5.30;;;4.85;;
37065;SDS011;22981;43.080;25.550;2022-08-16T12:43:02;5.80;;;4.97;;
37065;SDS011;22981;43.080;25.550;2022-08-16T12:45:34;5.40;;;4.67;;
37065;SDS011;22981;43.080;25.550;2022-08-16T12:48:04;4.95;;;4.47;;
37065;SDS011;22981;43.080;25.550;2022-08-16T12:50:51;6.33;;;4.60;;
37065;SDS011;22981;43.080;25.550;2022-08-16T12:53:19;5.97;;;4.67;;
37065;SDS011;22981;43.080;25.550;2022-08-16T12:55:48;4.80;;;4.40;;
37065;SDS011;22981;43.080;25.550;2022-08-16T12:58:16;4.85;;;4.45;;
37065;SDS011;22981;43.080;25.550;2022-08-16T13:00:44;4.75;;;4.35;;
37065;SDS011;22981;43.080;25.550;2022-08-16T13:03:13;4.55;;;4.15;;
37065;SDS011;22981;43.080;25.550;2022-08-16T13:05:41;5.03;;;4.45;;
37065;SDS011;22981;43.080;25.550;2022-08-16T13:08:10;4.20;;;3.80;;
37065;SDS011;22981;43.080;25.550;2022-08-16T13:10:40;4.47;;;3.95;;
37065;SDS011;22981;43.080;25.550;2022-08-16T13:13:13;5.42;;;4.10;;
37065;SDS011;22981;43.080;25.550;2022-08-16T13:15:44;4.40;;;4.00;;
37065;SDS011;22981;43.080;25.550;2022-08-16T13:18:12;4.92;;;4.37;;
37065;SDS011;22981;43.080;25.550;2022-08-16T13:20:39;7.67;;;4.70;;
37065;SDS011;22981;43.080;25.550;2022-08-16T13:23:08;4.67;;;3.70;;
37065;SDS011;22981;43.080;25.550;2022-08-16T13:25:38;4.33;;;3.85;;
37065;SDS011;22981;43.080;25.550;2022-08-16T13:28:08;4.60;;;4.20;;
37065;SDS011;22981;43.080;25.550;2022-08-16T13:30:39;4.70;;;3.98;;
37065;SDS011;22981;43.080;25.550;2022-08-16T13:33:14;4.70;;;4.30;;
37065;SDS011;22981;43.080;25.550;2022-08-16T13:35:39;4.47;;;4.08;;
37065;SDS011;22981;43.080;25.550;2022-08-16T13:38:09;4.50;;;4.10;;
37065;SDS011;22981;43.080;25.550;2022-08-16T13:40:37;4.33;;;3.92;;
37065;SDS011;22981;43.080;25.550;2022-08-16T13:43:05;4.67;;;4.20;;
37065;SDS011;22981;43.080;25.550;2022-08-16T13:45:33;5.60;;;3.92;;
37065;SDS011;22981;43.080;25.550;2022-08-16T13:48:01;4.45;;;4.10;;
37065;SDS011;22981;43.080;25.550;2022-08-16T13:50:30;4.45;;;4.05;;
37065;SDS011;22981;43.080;25.550;2022-08-16T13:52:58;4.30;;;4.00;;
37065;SDS011;22981;43.080;25.550;2022-08-16T13:55:26;4.30;;;3.95;;
37065;SDS011;22981;43.080;25.550;2022-08-16T13:57:54;4.92;;;4.42;;
37065;SDS011;22981;43.080;25.550;2022-08-16T14:00:21;4.22;;;3.83;;
37065;SDS011;22981;43.080;25.550;2022-08-16T14:02:50;4.67;;;4.28;;
37065;SDS011;22981;43.080;25.550;2022-08-16T14:05:18;4.62;;;4.20;;
37065;SDS011;22981;43.080;25.550;2022-08-16T14:07:45;5.00;;;4.37;;
37065;SDS011;22981;43.080;25.550;2022-08-16T14:10:13;4.92;;;4.53;;
37065;SDS011;22981;43.080;25.550;2022-08-16T14:12:40;6.40;;;5.22;;
37065;SDS011;22981;43.080;25.550;2022-08-16T14:15:09;5.95;;;5.33;;
37065;SDS011;22981;43.080;25.550;2022-08-16T14:17:40;5.20;;;4.70;;
37065;SDS011;22981;43.080;25.550;2022-08-16T14:20:08;5.10;;;4.70;;
37065;SDS011;22981;43.080;25.550;2022-08-16T14:22:37;5.40;;;4.90;;
37065;SDS011;22981;43.080;25.550;2022-08-16T14:25:07;6.37;;;5.65;;
37065;SDS011;22981;43.080;25.550;2022-08-16T14:27:36;6.22;;;5.72;;
37065;SDS011;22981;43.080;25.550;2022-08-16T14:30:06;5.70;;;5.15;;
37065;SDS011;22981;43.080;25.550;2022-08-16T14:32:37;6.45;;;5.85;;
37065;SDS011;22981;43.080;25.550;2022-08-16T14:35:07;6.28;;;5.67;;
37065;SDS011;22981;43.080;25.550;2022-08-16T14:37:36;6.95;;;5.97;;
37065;SDS011;22981;43.080;25.550;2022-08-16T14:40:05;6.78;;;6.17;;
37065;SDS011;22981;43.080;25.550;2022-08-16T14:42:36;9.15;;;5.45;;